Time;durP1;ratioP1;P1;durP2;ratioP2;P2;SDS_P1;SDS_P2;PMS_P1;PMS_P2;Temp;Humidity;BMP_temperature;BMP_pressure;BME280_temperature;BME280_humidity;BME280_pressure;Samples;Min_cycle;Max_cycle;Signal;HPM_P1;HPM_P2
2022/01/16 00:04:18;;;;;;;9.07;5.03;;;10.70;95.50;;;;;;5098055;28;20043;-65
2022/01/16 00:06:46;;;;;;;8.30;4.05;;;10.70;95.40;;;;;;5102659;28;20045;-65
2022/01/16 00:09:14;;;;;;;10.45;5.03;;;10.70;95.40;;;;;;5105667;28;20042;-64
2022/01/16 00:11:43;;;;;;;8.05;4.95;;;10.70;95.50;;;;;;5110322;27;20051;-64
2022/01/16 00:14:11;;;;;;;13.98;5.13;;;10.70;95.50;;;;;;5112208;28;20060;-65
2022/01/16 00:16:39;;;;;;;9.10;4.97;;;10.60;95.50;;;;;;5108581;28;20047;-64
2022/01/16 00:19:07;;;;;;;7.95;4.00;;;10.60;95.70;;;;;;5111632;28;20046;-64
2022/01/16 00:21:39;;;;;;;8.68;4.50;;;10.60;95.70;;;;;;5113342;28;20042;-65
2022/01/16 00:24:08;;;;;;;10.65;4.82;;;10.60;95.70;;;;;;5116286;28;20039;-65
2022/01/16 00:26:36;;;;;;;8.07;5.10;;;10.60;95.70;;;;;;5096213;28;20093;-64
2022/01/16 00:29:08;;;;;;;9.15;4.93;;;10.60;95.70;;;;;;5105311;27;20414;-63
2022/01/16 00:31:38;;;;;;;8.75;5.43;;;10.50;95.70;;;;;;5110788;27;20033;-63
2022/01/16 00:34:08;;;;;;;7.05;4.40;;;10.50;95.70;;;;;;5106749;27;20493;-64
2022/01/16 00:36:36;;;;;;;9.20;5.45;;;10.50;95.60;;;;;;5106484;28;20048;-64
2022/01/16 00:39:04;;;;;;;8.15;5.22;;;10.40;95.80;;;;;;5109873;28;20060;-64
2022/01/16 00:41:34;;;;;;;10.70;4.97;;;10.40;95.90;;;;;;5112298;28;20131;-64
2022/01/16 00:44:02;;;;;;;8.98;5.47;;;10.30;95.90;;;;;;5097512;28;20081;-64
2022/01/16 00:46:30;;;;;;;12.10;5.38;;;10.30;96.10;;;;;;5112219;28;20063;-64
2022/01/16 00:48:58;;;;;;;8.73;5.47;;;10.30;96.10;;;;;;5104411;28;20063;-64
2022/01/16 00:51:26;;;;;;;7.53;5.32;;;10.30;96.20;;;;;;5103836;28;20563;-64
2022/01/16 00:53:54;;;;;;;8.20;6.05;;;10.20;96.20;;;;;;5109240;28;20044;-64
2022/01/16 00:56:21;;;;;;;10.05;6.13;;;10.20;96.30;;;;;;5104887;28;20048;-64
2022/01/16 00:58:49;;;;;;;7.30;5.10;;;10.20;96.30;;;;;;5107603;28;20051;-63
2022/01/16 01:01:16;;;;;;;8.60;5.97;;;10.20;96.40;;;;;;5113978;28;20046;-63
2022/01/16 01:03:44;;;;;;;10.70;5.38;;;10.20;96.60;;;;;;5115255;28;20032;-63
2022/01/16 01:06:13;;;;;;;12.40;6.10;;;10.20;96.70;;;;;;5083954;28;20031;-64
2022/01/16 01:08:41;;;;;;;8.13;4.80;;;10.10;96.80;;;;;;5113473;28;20161;-64
2022/01/16 01:11:13;;;;;;;10.90;5.63;;;10.20;96.90;;;;;;5113849;28;20406;-64
2022/01/16 01:16:27;;;;;;;13.30;5.63;;;10.10;96.80;;;;;;5115217;28;20059;-64
2022/01/16 01:18:55;;;;;;;10.65;5.70;;;10.10;96.90;;;;;;5080145;28;20047;-64
2022/01/16 01:21:28;;;;;;;10.20;4.68;;;10.20;97.10;;;;;;5115917;28;20131;-64
2022/01/16 01:23:57;;;;;;;8.35;5.32;;;10.20;97.00;;;;;;5116046;28;20127;-64
2022/01/16 01:26:30;;;;;;;7.57;4.65;;;10.10;97.00;;;;;;5098151;28;20081;-64
2022/01/16 01:28:58;;;;;;;8.88;4.53;;;10.20;97.10;;;;;;5081668;28;20043;-64
2022/01/16 01:31:26;;;;;;;8.98;5.35;;;10.20;97.10;;;;;;5097823;28;20055;-64
2022/01/16 01:33:54;;;;;;;10.90;5.97;;;10.10;97.20;;;;;;5115840;28;20035;-64
2022/01/16 01:36:22;;;;;;;7.07;5.15;;;10.20;97.30;;;;;;5097736;28;20474;-65
2022/01/16 01:38:49;;;;;;;9.80;4.22;;;10.20;97.30;;;;;;5097603;28;20043;-65
2022/01/16 01:41:19;;;;;;;10.40;4.78;;;10.20;97.30;;;;;;5115775;28;20097;-64
2022/01/16 01:52:04;;;;;;;12.77;4.68;;;10.20;97.40;;;;;;5115569;28;20040;-65
2022/01/16 01:54:32;;;;;;;8.27;4.85;;;10.20;97.40;;;;;;5096836;28;20447;-65
2022/01/16 01:57:00;;;;;;;7.13;4.25;;;10.20;97.30;;;;;;5115183;28;20067;-64
2022/01/16 01:59:28;;;;;;;8.30;4.35;;;10.20;97.30;;;;;;5115353;28;20047;-64
2022/01/16 02:01:56;;;;;;;9.55;5.13;;;10.10;97.30;;;;;;5097135;28;20047;-64
2022/01/16 02:04:23;;;;;;;11.38;5.75;;;10.20;97.40;;;;;;5115356;28;20078;-64
2022/01/16 02:06:51;;;;;;;10.25;6.13;;;10.10;97.40;;;;;;5114395;28;20040;-64
2022/01/16 02:09:20;;;;;;;8.80;5.90;;;10.10;97.40;;;;;;5097307;28;20138;-64
2022/01/16 02:11:51;;;;;;;7.85;4.63;;;10.20;97.40;;;;;;5115071;28;20040;-64
2022/01/16 02:28:37;;;;;;;15.85;4.68;;;10.10;97.60;;;;;;5096722;28;20434;-65
2022/01/16 02:31:18;;;;;;;8.68;4.38;;;10.00;97.60;;;;;;5096660;28;20051;-64
2022/01/16 02:36:45;;;;;;;8.30;3.67;;;10.00;97.80;;;;;;5096248;28;20489;-64
2022/01/16 02:39:13;;;;;;;6.82;4.03;;;9.90;97.80;;;;;;5096164;28;20517;-64
2022/01/16 02:41:43;;;;;;;5.60;3.10;;;9.90;97.90;;;;;;5114697;28;20046;-65
2022/01/16 02:44:22;;;;;;;10.75;4.63;;;9.90;98.00;;;;;;5114581;28;20052;-64
2022/01/16 02:46:50;;;;;;;6.10;3.92;;;9.80;98.10;;;;;;5114582;28;20131;-64
2022/01/16 02:49:30;;;;;;;8.10;4.30;;;9.90;98.10;;;;;;5096342;28;20070;-64
2022/01/16 02:52:07;;;;;;;8.90;4.03;;;9.80;98.20;;;;;;5114488;28;20039;-65
2022/01/16 02:54:38;;;;;;;7.35;3.50;;;9.80;98.30;;;;;;5079740;28;20051;-65
2022/01/16 02:57:08;;;;;;;10.23;3.47;;;9.80;98.30;;;;;;5114375;28;20048;-64
2022/01/16 02:59:37;;;;;;;16.52;5.63;;;9.70;98.40;;;;;;5114317;28;20064;-64
2022/01/16 03:02:08;;;;;;;9.88;3.67;;;9.80;98.40;;;;;;5095828;28;20106;-64
2022/01/16 03:04:36;;;;;;;12.00;4.22;;;9.70;98.40;;;;;;5114191;28;20043;-65
2022/01/16 03:07:05;;;;;;;6.75;3.70;;;9.70;98.40;;;;;;5114144;28;20089;-65
2022/01/16 03:10:05;;;;;;;5.70;3.03;;;9.70;98.40;;;;;;5079438;28;20047;-64
2022/01/16 03:12:20;;;;;;;10.10;3.78;;;9.70;98.50;;;;;;5096130;28;20595;-64
2022/01/16 03:14:48;;;;;;;5.90;3.97;;;9.70;98.40;;;;;;5095949;28;20505;-64
2022/01/16 03:17:25;;;;;;;7.20;3.80;;;9.60;98.40;;;;;;5095730;28;20043;-64
2022/01/16 03:22:38;;;;;;;7.18;4.18;;;9.60;98.30;;;;;;5114039;28;19965;-64
2022/01/16 03:25:06;;;;;;;5.82;4.00;;;9.60;98.40;;;;;;5078227;28;20052;-65
2022/01/16 03:27:36;;;;;;;6.50;3.25;;;9.60;98.30;;;;;;5113938;28;20156;-64
2022/01/16 03:30:04;;;;;;;9.93;4.40;;;9.60;98.40;;;;;;5113901;28;20040;-64
2022/01/16 03:32:31;;;;;;;10.32;4.03;;;9.50;98.30;;;;;;5113882;28;20398;-64
2022/01/16 03:34:59;;;;;;;9.65;5.03;;;9.50;98.40;;;;;;5078925;28;20034;-64
2022/01/16 03:37:26;;;;;;;7.03;3.40;;;9.50;98.20;;;;;;5113855;28;20067;-65
2022/01/16 03:39:56;;;;;;;8.57;3.75;;;9.40;98.10;;;;;;5078777;28;20047;-64
2022/01/16 03:42:28;;;;;;;8.02;4.55;;;9.30;98.20;;;;;;5113762;28;20089;-65
2022/01/16 03:44:55;;;;;;;5.53;4.60;;;9.30;98.20;;;;;;5079406;28;20442;-65
2022/01/16 03:47:23;;;;;;;7.50;4.00;;;9.30;98.20;;;;;;5113606;28;20493;-65
2022/01/16 03:49:50;;;;;;;6.88;4.55;;;9.30;98.20;;;;;;5095845;28;20040;-65
2022/01/16 03:52:18;;;;;;;9.80;4.97;;;9.20;98.30;;;;;;5113611;28;20486;-65
2022/01/16 03:54:45;;;;;;;6.15;4.20;;;9.20;98.40;;;;;;5113739;28;20044;-65
2022/01/16 03:57:13;;;;;;;5.95;3.88;;;9.10;98.50;;;;;;5095281;28;20051;-65
2022/01/16 03:59:42;;;;;;;6.10;4.13;;;9.00;98.60;;;;;;5095659;28;20103;-65
2022/01/16 04:02:10;;;;;;;7.65;4.63;;;9.00;98.90;;;;;;5113691;28;20061;-65
2022/01/16 04:04:37;;;;;;;9.38;4.05;;;9.00;98.90;;;;;;5113639;28;20040;-65
2022/01/16 04:07:06;;;;;;;8.52;4.93;;;9.00;99.00;;;;;;5113342;28;20040;-65
2022/01/16 04:09:34;;;;;;;9.90;5.75;;;9.00;99.10;;;;;;5078785;28;20150;-65
2022/01/16 04:12:03;;;;;;;11.50;6.40;;;8.90;99.30;;;;;;5113562;28;20114;-65
2022/01/16 04:17:18;;;;;;;7.68;4.82;;;8.90;99.70;;;;;;5095495;28;20079;-64
2022/01/16 04:19:47;;;;;;;9.57;5.28;;;8.90;99.80;;;;;;5113503;28;20066;-64
2022/01/16 04:22:15;;;;;;;7.03;5.45;;;8.90;99.90;;;;;;5113588;28;20044;-65
2022/01/16 04:24:43;;;;;;;8.82;5.53;;;8.90;99.90;;;;;;5095805;28;20047;-64
2022/01/16 04:27:12;;;;;;;9.35;5.10;;;9.00;99.90;;;;;;5113286;28;20050;-65
2022/01/16 04:29:42;;;;;;;13.50;5.63;;;9.00;99.90;;;;;;5097146;28;20044;-64
2022/01/16 04:32:10;;;;;;;7.72;5.25;;;9.00;99.90;;;;;;5098022;28;20424;-65
2022/01/16 04:34:38;;;;;;;14.40;5.70;;;9.00;99.90;;;;;;5117193;28;20126;-65
2022/01/16 04:37:06;;;;;;;12.40;5.60;;;9.00;99.90;;;;;;5117468;28;20393;-65
2022/01/16 04:39:36;;;;;;;9.60;6.13;;;9.00;99.90;;;;;;5116966;28;20052;-65
2022/01/16 04:44:52;;;;;;;10.50;5.00;;;9.00;99.90;;;;;;5116879;28;20048;-65
2022/01/16 04:47:20;;;;;;;8.77;5.22;;;9.00;99.90;;;;;;5116615;28;20393;-65
2022/01/16 04:49:48;;;;;;;11.57;5.95;;;9.00;99.90;;;;;;5081738;28;20139;-65
2022/01/16 04:52:15;;;;;;;7.53;5.00;;;9.00;99.90;;;;;;5116837;28;20047;-65
2022/01/16 04:54:43;;;;;;;10.40;6.28;;;9.00;99.90;;;;;;5116496;28;20472;-65
2022/01/16 04:57:13;;;;;;;7.72;5.32;;;9.00;99.90;;;;;;5098319;28;20047;-65
2022/01/16 04:59:40;;;;;;;12.20;7.22;;;9.00;99.90;;;;;;5116708;28;20394;-65
2022/01/16 05:02:08;;;;;;;11.25;7.13;;;9.00;99.90;;;;;;5116860;28;20131;-65
2022/01/16 05:04:36;;;;;;;10.85;6.63;;;9.00;99.90;;;;;;5116713;28;20053;-65
2022/01/16 05:07:03;;;;;;;11.52;7.10;;;9.00;99.90;;;;;;5116377;28;20469;-65
2022/01/16 05:09:31;;;;;;;8.70;6.07;;;9.00;99.90;;;;;;5098113;28;20044;-65
2022/01/16 05:12:02;;;;;;;11.40;6.15;;;9.00;99.90;;;;;;5116108;28;20078;-65
2022/01/16 05:17:15;;;;;;;10.83;5.80;;;9.00;99.90;;;;;;5116024;28;20092;-65
2022/01/16 05:19:44;;;;;;;10.93;6.55;;;9.00;99.90;;;;;;5097825;28;20040;-65
2022/01/16 05:22:12;;;;;;;10.50;5.45;;;9.00;99.90;;;;;;5097778;28;20458;-65
2022/01/16 05:24:39;;;;;;;10.43;6.15;;;9.00;99.90;;;;;;5080846;28;20464;-64
2022/01/16 05:27:07;;;;;;;10.18;5.47;;;9.00;99.90;;;;;;5116031;28;20062;-65
2022/01/16 05:29:36;;;;;;;16.23;8.23;;;9.00;99.90;;;;;;5115475;28;20043;-65
2022/01/16 05:32:04;;;;;;;11.65;6.63;;;8.90;99.90;;;;;;5097805;28;20394;-65
2022/01/16 05:34:31;;;;;;;15.05;7.45;;;8.90;99.90;;;;;;5098129;28;20051;-65
2022/01/16 05:36:59;;;;;;;12.90;7.13;;;8.90;99.90;;;;;;5115667;28;20039;-65
2022/01/16 05:39:26;;;;;;;10.88;7.30;;;8.80;99.90;;;;;;5115594;28;20108;-65
2022/01/16 05:41:54;;;;;;;11.35;7.05;;;8.80;99.90;;;;;;5114535;28;20478;-64
2022/01/16 05:44:21;;;;;;;12.68;9.68;;;8.80;99.90;;;;;;5098065;28;20143;-63
2022/01/16 05:46:49;;;;;;;15.27;9.38;;;8.80;99.90;;;;;;5115578;28;20036;-62
2022/01/16 05:49:16;;;;;;;13.10;8.15;;;8.90;99.90;;;;;;5115630;28;20375;-63
2022/01/16 05:51:44;;;;;;;12.50;7.70;;;8.80;99.90;;;;;;5097603;28;20039;-62
2022/01/16 05:54:12;;;;;;;12.48;6.63;;;8.80;99.90;;;;;;5115203;28;20497;-62
2022/01/16 05:56:39;;;;;;;13.00;7.07;;;8.80;99.90;;;;;;5097253;28;20461;-63
2022/01/16 05:59:07;;;;;;;15.48;8.02;;;8.80;99.90;;;;;;5115331;28;20058;-63
2022/01/16 06:01:36;;;;;;;10.90;7.50;;;8.70;99.90;;;;;;5115097;28;20503;-63
2022/01/16 06:04:04;;;;;;;11.40;6.32;;;8.70;99.90;;;;;;5097025;28;20562;-63
2022/01/16 06:06:31;;;;;;;13.88;6.53;;;8.70;99.90;;;;;;5115112;28;20039;-63
2022/01/16 06:08:59;;;;;;;12.48;6.07;;;8.70;99.90;;;;;;5096974;28;20070;-63
2022/01/16 06:11:26;;;;;;;14.73;8.10;;;8.60;99.90;;;;;;5115261;28;20047;-63
2022/01/16 06:13:54;;;;;;;15.73;9.27;;;8.60;99.90;;;;;;5114613;28;20066;-63
2022/01/16 06:16:22;;;;;;;17.33;10.73;;;8.60;99.90;;;;;;5115039;28;20040;-63
2022/01/16 06:18:49;;;;;;;14.05;8.50;;;8.50;99.90;;;;;;5114981;28;20047;-63
2022/01/16 06:21:17;;;;;;;14.27;8.18;;;8.60;99.90;;;;;;5096267;28;20126;-63
2022/01/16 06:23:44;;;;;;;11.55;6.57;;;8.70;99.90;;;;;;5114843;28;20482;-63
2022/01/16 06:26:12;;;;;;;12.40;7.53;;;8.90;99.90;;;;;;5062431;28;20139;-64
2022/01/16 06:28:39;;;;;;;11.30;6.05;;;9.10;99.90;;;;;;5096436;28;20438;-64
2022/01/16 06:31:07;;;;;;;12.13;7.35;;;9.50;99.90;;;;;;5096133;28;20117;-63
2022/01/16 06:33:34;;;;;;;11.88;8.50;;;9.80;99.90;;;;;;5114281;28;20412;-63
2022/01/16 06:36:03;;;;;;;11.02;6.28;;;10.20;99.90;;;;;;5096008;28;20043;-63
2022/01/16 06:38:30;;;;;;;9.93;6.75;;;10.80;99.90;;;;;;5114409;28;20047;-64
2022/01/16 06:40:58;;;;;;;11.82;6.60;;;11.30;99.90;;;;;;5114257;28;20048;-64
2022/01/16 06:43:25;;;;;;;12.43;7.47;;;11.80;99.90;;;;;;5096264;28;20097;-64
2022/01/16 06:45:54;;;;;;;10.75;7.15;;;12.50;99.70;;;;;;5114309;28;20036;-63
2022/01/16 06:48:22;;;;;;;10.43;5.88;;;13.00;98.70;;;;;;5095710;28;20039;-63
2022/01/16 06:50:49;;;;;;;10.18;5.88;;;13.60;97.90;;;;;;5096101;28;20846;-63
2022/01/16 06:53:17;;;;;;;12.88;5.43;;;14.30;96.80;;;;;;5095368;28;20044;-63
2022/01/16 06:55:45;;;;;;;7.97;5.20;;;14.80;96.00;;;;;;5114046;28;20040;-63
2022/01/16 06:58:12;;;;;;;8.68;5.22;;;15.40;95.20;;;;;;5113921;28;20492;-64
2022/01/16 07:00:40;;;;;;;8.95;5.82;;;15.80;94.30;;;;;;5113691;28;20097;-64
2022/01/16 07:03:08;;;;;;;8.13;5.63;;;16.10;93.90;;;;;;5113764;28;20104;-64
2022/01/16 07:05:35;;;;;;;9.30;6.00;;;16.40;93.50;;;;;;5113787;28;20486;-64
2022/01/16 07:08:03;;;;;;;7.10;5.22;;;16.90;93.00;;;;;;5113646;28;20074;-64
2022/01/16 07:10:31;;;;;;;7.70;5.30;;;17.40;92.30;;;;;;5114165;28;20127;-64
2022/01/16 07:12:59;;;;;;;9.15;6.57;;;17.80;91.60;;;;;;5113776;28;20040;-64
2022/01/16 07:15:26;;;;;;;9.75;5.82;;;18.20;91.00;;;;;;5095330;28;20035;-64
2022/01/16 07:17:54;;;;;;;10.43;6.28;;;18.70;90.30;;;;;;5107935;28;20044;-64
2022/01/16 07:20:22;;;;;;;8.40;5.53;;;19.00;90.00;;;;;;5116614;27;20035;-65
2022/01/16 07:22:49;;;;;;;12.38;7.63;;;19.40;88.80;;;;;;5119158;27;20135;-65
2022/01/16 07:25:17;;;;;;;10.93;8.05;;;19.90;87.30;;;;;;5112242;28;20724;-64
2022/01/16 07:27:44;;;;;;;11.38;8.88;;;20.30;86.30;;;;;;5092581;28;20397;-65
2022/01/16 07:30:12;;;;;;;11.80;8.73;;;20.70;85.40;;;;;;5124403;28;20092;-65
2022/01/16 07:32:40;;;;;;;13.25;7.45;;;21.10;84.20;;;;;;5110740;28;20062;-65
2022/01/16 07:35:08;;;;;;;14.85;8.52;;;21.50;83.10;;;;;;5115453;28;20405;-65
2022/01/16 07:37:44;;;;;;;12.63;8.57;;;21.70;82.20;;;;;;5092166;28;20044;-65
2022/01/16 07:40:13;;;;;;;14.50;8.55;;;22.00;81.30;;;;;;5111874;28;20043;-65
2022/01/16 07:42:40;;;;;;;13.73;7.40;;;22.10;80.50;;;;;;5101072;28;20126;-65
2022/01/16 07:45:08;;;;;;;10.05;6.40;;;22.10;80.50;;;;;;5112642;28;20064;-65
2022/01/16 07:47:36;;;;;;;16.40;6.05;;;22.00;80.40;;;;;;5110092;28;20372;-65
2022/01/16 07:50:05;;;;;;;12.10;6.53;;;21.80;80.40;;;;;;5112755;28;20039;-65
2022/01/16 07:52:44;;;;;;;10.15;6.15;;;21.60;80.70;;;;;;5113367;28;20067;-65
2022/01/16 07:55:12;;;;;;;8.80;6.07;;;21.30;81.30;;;;;;5114351;28;20460;-65
2022/01/16 07:57:39;;;;;;;9.98;4.90;;;21.00;81.60;;;;;;5119383;28;20048;-66
2022/01/16 08:00:20;;;;;;;8.68;5.63;;;20.70;82.20;;;;;;5114477;28;20036;-65
2022/01/16 08:02:50;;;;;;;6.95;4.90;;;20.40;83.00;;;;;;5098779;28;20040;-65
2022/01/16 08:05:18;;;;;;;10.98;6.20;;;20.10;83.70;;;;;;5097661;28;20044;-65
2022/01/16 08:07:46;;;;;;;6.45;4.30;;;20.00;84.10;;;;;;5111694;27;20047;-66
2022/01/16 08:10:14;;;;;;;10.80;6.10;;;19.90;84.50;;;;;;5116153;28;20048;-65
2022/01/16 08:12:42;;;;;;;9.50;4.47;;;19.80;84.80;;;;;;5111247;27;20043;-64
2022/01/16 08:15:10;;;;;;;11.55;5.00;;;19.70;84.90;;;;;;5116620;28;20047;-64
2022/01/16 08:17:38;;;;;;;7.72;5.65;;;19.60;85.20;;;;;;5123810;27;20110;-63
2022/01/16 08:20:10;;;;;;;8.60;5.55;;;19.60;85.50;;;;;;5081301;28;20442;-63
2022/01/16 08:22:39;;;;;;;12.82;6.47;;;19.50;86.00;;;;;;5096525;28;20039;-64
2022/01/16 08:25:07;;;;;;;11.40;5.20;;;19.50;86.00;;;;;;5128920;27;20039;-64
2022/01/16 08:27:35;;;;;;;9.10;4.63;;;19.40;86.00;;;;;;5108317;27;20564;-65
2022/01/16 08:30:05;;;;;;;12.38;6.10;;;19.30;87.10;;;;;;5098110;28;20049;-65
2022/01/16 08:32:32;;;;;;;11.63;6.85;;;19.20;86.90;;;;;;5120521;27;20116;-65
2022/01/16 08:35:00;;;;;;;8.38;5.65;;;19.00;87.10;;;;;;5115850;28;20370;-65
2022/01/16 08:37:28;;;;;;;9.23;5.25;;;18.90;87.80;;;;;;5097353;28;20051;-64
2022/01/16 08:39:55;;;;;;;17.33;6.28;;;18.70;88.20;;;;;;5116967;28;20362;-65
2022/01/16 08:42:23;;;;;;;85.18;15.98;;;18.50;89.00;;;;;;5098945;28;20050;-64
2022/01/16 08:44:51;;;;;;;14.70;5.68;;;18.30;89.90;;;;;;5099130;28;20047;-64
2022/01/16 08:47:19;;;;;;;10.13;5.07;;;18.00;90.10;;;;;;5064963;28;20460;-64
2022/01/16 08:49:47;;;;;;;9.30;4.88;;;17.80;90.50;;;;;;5098659;28;20042;-64
2022/01/16 08:52:15;;;;;;;9.40;6.05;;;17.60;90.70;;;;;;5098279;28;20410;-64
2022/01/16 08:54:42;;;;;;;9.68;5.25;;;17.50;90.90;;;;;;5117038;28;20502;-64
2022/01/16 08:57:10;;;;;;;8.25;4.70;;;17.40;91.00;;;;;;5099049;28;20039;-64
2022/01/16 08:59:38;;;;;;;12.35;5.38;;;17.30;91.10;;;;;;5098742;28;20048;-63
2022/01/16 09:02:05;;;;;;;5.72;4.22;;;17.30;91.00;;;;;;5116602;28;20109;-63
2022/01/16 09:04:33;;;;;;;9.52;4.65;;;17.10;91.00;;;;;;5116355;28;20109;-63
2022/01/16 09:07:01;;;;;;;8.10;4.72;;;17.10;91.00;;;;;;5098215;28;20449;-62
2022/01/16 09:09:30;;;;;;;6.45;4.35;;;17.00;91.30;;;;;;5098350;28;20389;-62
2022/01/16 09:11:59;;;;;;;17.05;5.32;;;16.90;90.80;;;;;;5116328;28;20054;-62
2022/01/16 09:14:27;;;;;;;8.55;4.70;;;16.90;90.60;;;;;;5116409;28;20043;-62
2022/01/16 09:16:55;;;;;;;11.25;5.30;;;16.80;90.50;;;;;;5081376;28;20063;-63
2022/01/16 09:19:22;;;;;;;14.35;6.28;;;16.90;90.70;;;;;;5097819;28;20043;-63
2022/01/16 09:21:50;;;;;;;9.38;5.82;;;16.80;90.50;;;;;;5116022;28;20385;-62
2022/01/16 09:24:18;;;;;;;7.72;4.57;;;16.70;90.50;;;;;;5116335;28;20064;-63
2022/01/16 09:26:45;;;;;;;6.57;4.13;;;16.80;90.10;;;;;;5098380;28;20040;-63
2022/01/16 09:29:13;;;;;;;8.35;4.47;;;16.70;89.40;;;;;;5115875;28;20051;-63
2022/01/16 09:31:40;;;;;;;5.85;3.65;;;16.80;89.50;;;;;;5097744;28;20047;-63
2022/01/16 09:34:08;;;;;;;7.28;3.42;;;16.80;88.30;;;;;;5115835;28;20122;-63
2022/01/16 09:36:37;;;;;;;5.53;3.22;;;16.80;88.60;;;;;;5116112;28;20401;-64
2022/01/16 09:39:05;;;;;;;5.63;3.00;;;16.80;88.40;;;;;;5097796;28;20104;-63
2022/01/16 09:41:32;;;;;;;7.05;3.08;;;16.80;88.30;;;;;;5098059;28;20096;-63
2022/01/16 09:44:01;;;;;;;5.55;3.05;;;16.80;87.90;;;;;;5115814;28;20038;-64
2022/01/16 09:46:29;;;;;;;5.72;3.05;;;16.80;88.30;;;;;;5115658;28;20516;-63
2022/01/16 09:48:57;;;;;;;5.38;3.45;;;16.70;87.10;;;;;;5097779;28;20054;-63
2022/01/16 09:51:24;;;;;;;7.18;3.25;;;16.80;87.20;;;;;;5097825;28;20120;-63
2022/01/16 09:53:53;;;;;;;4.93;3.55;;;16.80;87.50;;;;;;5097646;28;20036;-63
2022/01/16 09:56:20;;;;;;;7.40;3.70;;;16.90;87.90;;;;;;5097492;28;20516;-64
2022/01/16 09:58:48;;;;;;;5.97;3.38;;;16.90;87.40;;;;;;5115538;28;20058;-64
2022/01/16 10:01:16;;;;;;;6.00;4.28;;;17.00;87.40;;;;;;5115074;28;20382;-64
2022/01/16 10:03:46;;;;;;;8.75;4.35;;;17.10;87.80;;;;;;5115228;28;20048;-63
2022/01/16 10:06:20;;;;;;;7.32;4.10;;;17.10;87.80;;;;;;5097756;28;20044;-63
2022/01/16 10:08:50;;;;;;;6.70;4.53;;;17.20;89.40;;;;;;5080264;28;20040;-64
2022/01/16 10:11:20;;;;;;;8.73;5.55;;;17.20;88.30;;;;;;5096969;28;20062;-64
2022/01/16 10:13:59;;;;;;;8.13;3.85;;;17.20;88.10;;;;;;5096905;28;20568;-64
2022/01/16 10:16:33;;;;;;;5.45;3.50;;;17.30;87.80;;;;;;5115183;28;20543;-64
2022/01/16 10:19:01;;;;;;;6.53;3.22;;;17.40;88.10;;;;;;5097378;28;20043;-64
2022/01/16 10:21:38;;;;;;;8.07;4.07;;;17.40;87.90;;;;;;5115081;28;20035;-64
2022/01/16 10:24:17;;;;;;;11.48;4.25;;;17.40;87.80;;;;;;5114937;28;20044;-64
2022/01/16 10:26:46;;;;;;;14.50;5.75;;;17.40;88.00;;;;;;5079907;28;20048;-64
2022/01/16 10:29:19;;;;;;;5.20;3.88;;;17.50;88.20;;;;;;5115257;28;20073;-64
2022/01/16 10:31:49;;;;;;;6.20;3.85;;;17.50;87.80;;;;;;5115219;28;20046;-64
2022/01/16 10:34:29;;;;;;;6.13;3.25;;;17.50;87.90;;;;;;5079899;28;20044;-64
2022/01/16 10:36:56;;;;;;;5.38;3.45;;;17.50;88.30;;;;;;5114605;28;20043;-64
2022/01/16 10:39:24;;;;;;;5.55;3.20;;;17.60;87.60;;;;;;5080124;28;20048;-64
2022/01/16 10:42:16;;;;;;;6.82;3.70;;;17.60;87.30;;;;;;5114690;28;20048;-64
2022/01/16 10:44:45;;;;;;;5.95;3.50;;;17.60;87.00;;;;;;5114935;28;20089;-64
2022/01/16 10:47:30;;;;;;;7.30;3.10;;;17.70;88.50;;;;;;5114532;28;20063;-64
2022/01/16 10:50:18;;;;;;;7.47;3.77;;;17.80;87.20;;;;;;5079648;28;20436;-64
2022/01/16 10:52:52;;;;;;;6.18;3.00;;;17.80;86.30;;;;;;5096606;28;20052;-64
2022/01/16 10:55:23;;;;;;;3.85;2.70;;;17.80;87.30;;;;;;5114567;28;20478;-65
2022/01/16 10:58:02;;;;;;;6.97;3.88;;;17.80;88.10;;;;;;5095903;28;20061;-63
2022/01/16 11:00:29;;;;;;;5.60;3.28;;;17.80;88.20;;;;;;5096442;28;20071;-64
2022/01/16 11:03:03;;;;;;;6.35;3.65;;;17.90;87.10;;;;;;5096431;28;20047;-64
2022/01/16 11:05:37;;;;;;;7.85;3.33;;;17.90;86.30;;;;;;5114346;28;20047;-64
2022/01/16 11:08:09;;;;;;;5.88;2.97;;;17.90;86.50;;;;;;5114189;28;20043;-64
2022/01/16 11:10:39;;;;;;;5.15;3.10;;;17.70;87.10;;;;;;5114225;28;20490;-63
2022/01/16 11:13:12;;;;;;;6.50;3.40;;;17.70;87.10;;;;;;5096420;28;20543;-65
2022/01/16 11:15:49;;;;;;;10.32;3.33;;;17.70;90.60;;;;;;5114187;28;20631;-64
2022/01/16 11:18:18;;;;;;;9.02;5.53;;;17.80;90.10;;;;;;5079093;28;20047;-63
2022/01/16 11:21:14;;;;;;;9.13;3.70;;;17.80;88.80;;;;;;5114412;28;20043;-64
2022/01/16 11:26:14;;;;;;;7.47;4.80;;;17.90;87.50;;;;;;5095924;28;20036;-63
2022/01/16 11:28:43;;;;;;;6.97;3.33;;;18.00;87.70;;;;;;5113926;28;20044;-64
2022/01/16 11:31:13;;;;;;;5.63;3.67;;;17.90;88.20;;;;;;5113824;28;20093;-63
2022/01/16 11:33:42;;;;;;;6.45;3.55;;;17.80;87.80;;;;;;5095549;28;20039;-63
2022/01/16 11:36:20;;;;;;;5.13;3.50;;;17.70;88.40;;;;;;5114014;28;20071;-64
2022/01/16 11:38:52;;;;;;;4.45;3.10;;;17.70;88.40;;;;;;5114436;28;20103;-65
2022/01/16 11:41:53;;;;;;;4.97;2.83;;;17.60;89.10;;;;;;5083464;28;20428;-65
2022/01/16 11:44:28;;;;;;;17.00;5.43;;;17.40;89.50;;;;;;5111249;28;20134;-62
2022/01/16 11:47:03;;;;;;;5.97;3.92;;;17.40;90.50;;;;;;5117693;28;20458;-62
2022/01/16 11:49:41;;;;;;;6.30;3.40;;;17.50;90.00;;;;;;5117837;28;20043;-62
2022/01/16 11:52:13;;;;;;;11.43;3.70;;;17.40;89.00;;;;;;5099525;28;20043;-63
2022/01/16 11:54:42;;;;;;;11.73;7.47;;;17.20;89.50;;;;;;5099343;28;20047;-63
2022/01/16 11:57:28;;;;;;;10.02;5.38;;;17.00;90.00;;;;;;5099834;28;20505;-64
2022/01/16 12:00:13;;;;;;;5.35;3.88;;;16.80;90.30;;;;;;5079202;28;20440;-62
2022/01/16 12:02:46;;;;;;;6.45;3.85;;;16.70;90.70;;;;;;5079176;28;20047;-62
2022/01/16 12:05:26;;;;;;;5.70;4.20;;;16.60;91.00;;;;;;5078908;28;20371;-63
2022/01/16 12:08:08;;;;;;;6.40;4.35;;;16.40;90.70;;;;;;5097103;28;20040;-64
2022/01/16 12:10:46;;;;;;;9.45;5.80;;;16.20;90.70;;;;;;5097002;28;20048;-63
2022/01/16 12:13:45;;;;;;;9.80;5.68;;;16.10;91.40;;;;;;5096913;28;20478;-64
2022/01/16 12:16:43;;;;;;;9.25;5.40;;;16.00;92.10;;;;;;5097256;28;20040;-64
2022/01/16 12:19:43;;;;;;;7.30;4.60;;;15.90;92.10;;;;;;5097022;28;20066;-63
2022/01/16 12:22:14;;;;;;;7.07;4.85;;;15.90;91.90;;;;;;5096931;28;20047;-65
2022/01/16 12:24:44;;;;;;;8.73;4.97;;;15.80;92.20;;;;;;5096863;28;20055;-64
2022/01/16 12:27:39;;;;;;;8.05;5.35;;;15.80;93.30;;;;;;5078918;28;20044;-63
2022/01/16 12:30:23;;;;;;;11.80;6.78;;;15.80;92.80;;;;;;5078705;28;20071;-64
2022/01/16 12:32:58;;;;;;;12.50;8.40;;;15.90;92.40;;;;;;5078860;28;20044;-64
2022/01/16 12:35:46;;;;;;;10.80;5.97;;;16.00;92.20;;;;;;5078872;28;20089;-64
2022/01/16 12:38:20;;;;;;;9.50;6.07;;;16.10;91.70;;;;;;5096645;28;20044;-64
2022/01/16 12:40:52;;;;;;;8.50;5.75;;;16.20;91.60;;;;;;5096438;28;20097;-64
2022/01/16 12:43:30;;;;;;;7.40;4.60;;;16.30;91.80;;;;;;5096498;28;20037;-64
2022/01/16 12:46:02;;;;;;;8.45;5.85;;;16.30;91.70;;;;;;5096624;28;20036;-64
2022/01/16 12:48:31;;;;;;;10.32;5.40;;;16.40;91.70;;;;;;5078254;28;20047;-64
2022/01/16 12:51:03;;;;;;;9.40;6.90;;;16.30;91.70;;;;;;5094039;28;20547;-64
2022/01/16 12:53:37;;;;;;;13.05;5.53;;;16.20;91.60;;;;;;5061134;28;20379;-64
2022/01/16 12:56:24;;;;;;;5.85;4.20;;;16.10;91.50;;;;;;5078046;28;20429;-64
2022/01/16 12:59:14;;;;;;;7.57;4.15;;;16.10;91.60;;;;;;5090455;28;20062;-64
2022/01/16 13:01:48;;;;;;;5.72;3.75;;;15.90;91.70;;;;;;5099827;28;20043;-64
2022/01/16 13:04:26;;;;;;;10.25;5.43;;;15.80;91.90;;;;;;5098280;28;20066;-64
2022/01/16 13:07:11;;;;;;;8.13;4.90;;;15.80;91.90;;;;;;5116478;28;20047;-64
2022/01/16 13:09:39;;;;;;;8.73;5.95;;;15.80;91.80;;;;;;5116364;28;20039;-63
2022/01/16 13:12:12;;;;;;;10.13;5.70;;;15.90;91.80;;;;;;5081017;28;20055;-63
2022/01/16 13:14:42;;;;;;;7.50;5.22;;;16.00;91.80;;;;;;5098331;28;20446;-64
2022/01/16 13:17:11;;;;;;;8.40;5.07;;;16.10;91.70;;;;;;5116329;28;20040;-64
2022/01/16 13:19:54;;;;;;;9.20;5.20;;;16.10;91.60;;;;;;5116214;28;20055;-64
2022/01/16 13:22:27;;;;;;;6.43;4.45;;;16.00;91.40;;;;;;5116006;28;20129;-64
2022/01/16 13:24:58;;;;;;;9.07;5.00;;;16.10;91.50;;;;;;5097749;28;20371;-64
2022/01/16 13:27:27;;;;;;;6.28;4.70;;;16.10;91.50;;;;;;5116133;28;20036;-65
2022/01/16 13:30:06;;;;;;;8.48;4.78;;;16.10;91.40;;;;;;5097324;28;20444;-64
2022/01/16 13:32:35;;;;;;;7.03;4.38;;;15.90;91.20;;;;;;5080928;28;20050;-65
2022/01/16 13:35:05;;;;;;;6.07;4.13;;;15.90;91.20;;;;;;5115470;28;20512;-65
2022/01/16 13:37:36;;;;;;;7.85;3.60;;;15.80;91.40;;;;;;5081020;28;20040;-65
2022/01/16 13:40:04;;;;;;;6.68;3.88;;;15.80;91.30;;;;;;5097828;28;20051;-64
2022/01/16 13:43:01;;;;;;;8.20;4.53;;;15.80;91.30;;;;;;5115667;28;20406;-64
2022/01/16 13:45:31;;;;;;;8.32;4.78;;;15.80;91.30;;;;;;5097443;28;20047;-65
2022/01/16 13:48:15;;;;;;;8.57;3.60;;;15.70;91.30;;;;;;5081012;28;20415;-63